OIII

Mehrabad International Airport

Tehran, Iran
TAF OIII 211150Z 2112/2218 27006KT 7000 NSC BECMG 2206/2207 4000 HZ BECMG 2210/2211 7000 NSC
Issued Valid From Valid To
Jan-21 @ 11:50 UTC
(5 hours ago)
Jan-21 @ 12:00 UTC
(5 hours ago)
Jan-22 @ 18:00 UTC
(-1 days ago)
Jan-21 @ 12:00 to Jan-22 @ 06:00
TAF OIII 211150Z 2112/2218 27006KT 7000 NSC
Wind Visibility Clouds
270° at 6 knots 7,001 meters
  • No significant clouds
Becoming Jan-22 @ 06:00 to Jan-22 @ 10:00
BECMG 2206/2207 4000 HZ
Wind Visibility Clouds Conditions
270° at 6 knots 4,007 meters
  • No significant clouds
  • Haze
Becoming Jan-22 @ 10:00 to Jan-22 @ 18:00
BECMG 2210/2211 7000 NSC
Wind Visibility Clouds Conditions
270° at 6 knots 7,001 meters
  • No significant clouds
  • Haze
TAF OIII 211150Z 2112/2218 27006KT 7000 NSC BECMG 2206/2207 4000 HZ BECMG 2210/2211 7000 NSC
Issued Jan-21 @ 11:50 UTC
(5 hours ago)
Valid From Jan-21 @ 12:00 UTC
(5 hours ago)
Valid To Jan-22 @ 18:00 UTC
(-1 days ago)
Jan-21 @ 12:00 - Jan-22 @ 06:00
Wind Visibility
270° at 6 knots 7,001 meters
Clouds
  • No significant clouds
Becoming Jan-22 @ 06:00 - Jan-22 @ 10:00
Wind Visibility
270° at 6 knots 4,007 meters
Clouds
  • No significant clouds
Conditions
  • Haze
Becoming Jan-22 @ 10:00 - Jan-22 @ 18:00
Wind Visibility
270° at 6 knots 7,001 meters
Clouds
  • No significant clouds
Conditions
  • Haze